sensor_id;sensor_type;location;lat;lon;timestamp;P1;durP1;ratioP1;P2;durP2;ratioP2
80163;SDS011;70071;55.130;61.268;2023-11-22T00:00:17;6.88;;;3.20;;
80163;SDS011;70071;55.130;61.268;2023-11-22T00:02:43;7.38;;;2.25;;
80163;SDS011;70071;55.130;61.268;2023-11-22T00:05:09;6.53;;;3.40;;
80163;SDS011;70071;55.130;61.268;2023-11-22T00:07:36;5.13;;;2.53;;
80163;SDS011;70071;55.130;61.268;2023-11-22T00:10:02;4.40;;;2.08;;
80163;SDS011;70071;55.130;61.268;2023-11-22T00:12:30;4.00;;;2.30;;
80163;SDS011;70071;55.130;61.268;2023-11-22T00:15:05;5.95;;;2.55;;
80163;SDS011;70071;55.130;61.268;2023-11-22T00:17:32;6.85;;;2.13;;
80163;SDS011;70071;55.130;61.268;2023-11-22T00:19:58;5.28;;;2.05;;
80163;SDS011;70071;55.130;61.268;2023-11-22T00:22:29;5.22;;;2.30;;
80163;SDS011;70071;55.130;61.268;2023-11-22T00:24:58;3.67;;;2.00;;
80163;SDS011;70071;55.130;61.268;2023-11-22T00:27:26;5.13;;;2.20;;
80163;SDS011;70071;55.130;61.268;2023-11-22T00:29:59;3.88;;;1.95;;
80163;SDS011;70071;55.130;61.268;2023-11-22T00:32:26;5.45;;;2.38;;
80163;SDS011;70071;55.130;61.268;2023-11-22T00:34:52;4.05;;;1.80;;
80163;SDS011;70071;55.130;61.268;2023-11-22T00:37:18;4.05;;;1.70;;
80163;SDS011;70071;55.130;61.268;2023-11-22T00:39:44;4.95;;;1.80;;
80163;SDS011;70071;55.130;61.268;2023-11-22T00:42:10;5.88;;;2.03;;
80163;SDS011;70071;55.130;61.268;2023-11-22T00:44:37;5.15;;;1.50;;
80163;SDS011;70071;55.130;61.268;2023-11-22T00:47:04;5.78;;;1.88;;
80163;SDS011;70071;55.130;61.268;2023-11-22T00:49:30;5.90;;;2.15;;
80163;SDS011;70071;55.130;61.268;2023-11-22T00:51:56;3.22;;;1.40;;
80163;SDS011;70071;55.130;61.268;2023-11-22T00:54:22;3.42;;;1.40;;
80163;SDS011;70071;55.130;61.268;2023-11-22T00:56:48;2.75;;;1.30;;
80163;SDS011;70071;55.130;61.268;2023-11-22T00:59:14;3.35;;;1.40;;
80163;SDS011;70071;55.130;61.268;2023-11-22T01:01:40;4.22;;;1.73;;
80163;SDS011;70071;55.130;61.268;2023-11-22T01:04:07;3.78;;;1.65;;
80163;SDS011;70071;55.130;61.268;2023-11-22T01:06:33;2.90;;;1.52;;
80163;SDS011;70071;55.130;61.268;2023-11-22T01:11:25;4.38;;;1.80;;
80163;SDS011;70071;55.130;61.268;2023-11-22T01:13:52;3.92;;;1.77;;
80163;SDS011;70071;55.130;61.268;2023-11-22T01:16:18;3.70;;;1.52;;
80163;SDS011;70071;55.130;61.268;2023-11-22T01:18:43;4.10;;;2.10;;
80163;SDS011;70071;55.130;61.268;2023-11-22T01:21:12;4.90;;;1.98;;
80163;SDS011;70071;55.130;61.268;2023-11-22T01:23:38;6.50;;;1.63;;
80163;SDS011;70071;55.130;61.268;2023-11-22T01:26:04;5.40;;;1.42;;
80163;SDS011;70071;55.130;61.268;2023-11-22T01:28:31;3.75;;;2.08;;
80163;SDS011;70071;55.130;61.268;2023-11-22T01:31:00;3.65;;;1.60;;
80163;SDS011;70071;55.130;61.268;2023-11-22T01:33:27;4.88;;;1.55;;
80163;SDS011;70071;55.130;61.268;2023-11-22T01:35:54;3.95;;;1.30;;
80163;SDS011;70071;55.130;61.268;2023-11-22T01:38:21;3.92;;;1.50;;
80163;SDS011;70071;55.130;61.268;2023-11-22T01:40:48;4.05;;;1.30;;
80163;SDS011;70071;55.130;61.268;2023-11-22T01:43:17;2.88;;;1.27;;
80163;SDS011;70071;55.130;61.268;2023-11-22T01:45:44;3.67;;;1.17;;
80163;SDS011;70071;55.130;61.268;2023-11-22T01:48:11;3.80;;;1.63;;
80163;SDS011;70071;55.130;61.268;2023-11-22T01:50:38;4.15;;;1.50;;
80163;SDS011;70071;55.130;61.268;2023-11-22T01:53:17;5.40;;;1.80;;
80163;SDS011;70071;55.130;61.268;2023-11-22T01:55:44;2.97;;;1.30;;
80163;SDS011;70071;55.130;61.268;2023-11-22T01:58:12;3.45;;;1.63;;
80163;SDS011;70071;55.130;61.268;2023-11-22T02:00:56;2.40;;;1.20;;
80163;SDS011;70071;55.130;61.268;2023-11-22T02:03:24;4.30;;;1.60;;
80163;SDS011;70071;55.130;61.268;2023-11-22T02:05:57;2.45;;;1.25;;
80163;SDS011;70071;55.130;61.268;2023-11-22T02:08:24;4.60;;;1.10;;
80163;SDS011;70071;55.130;61.268;2023-11-22T02:11:00;2.53;;;1.23;;
80163;SDS011;70071;55.130;61.268;2023-11-22T02:13:30;3.15;;;1.45;;
80163;SDS011;70071;55.130;61.268;2023-11-22T02:15:59;3.72;;;1.35;;
80163;SDS011;70071;55.130;61.268;2023-11-22T02:18:45;2.47;;;1.35;;
80163;SDS011;70071;55.130;61.268;2023-11-22T02:24:52;3.88;;;1.55;;
80163;SDS011;70071;55.130;61.268;2023-11-22T02:27:19;4.93;;;1.75;;
80163;SDS011;70071;55.130;61.268;2023-11-22T02:30:05;5.78;;;2.08;;
80163;SDS011;70071;55.130;61.268;2023-11-22T02:32:31;3.00;;;1.40;;
80163;SDS011;70071;55.130;61.268;2023-11-22T02:34:59;3.70;;;1.30;;
80163;SDS011;70071;55.130;61.268;2023-11-22T02:42:30;3.17;;;1.10;;
80163;SDS011;70071;55.130;61.268;2023-11-22T02:44:56;5.47;;;2.13;;
80163;SDS011;70071;55.130;61.268;2023-11-22T02:47:22;4.30;;;1.30;;
80163;SDS011;70071;55.130;61.268;2023-11-22T02:49:49;6.22;;;1.70;;
80163;SDS011;70071;55.130;61.268;2023-11-22T02:52:15;6.05;;;1.58;;
80163;SDS011;70071;55.130;61.268;2023-11-22T02:54:44;7.03;;;2.05;;
80163;SDS011;70071;55.130;61.268;2023-11-22T02:57:13;4.63;;;1.67;;
80163;SDS011;70071;55.130;61.268;2023-11-22T02:59:43;4.25;;;1.73;;
80163;SDS011;70071;55.130;61.268;2023-11-22T03:02:15;3.65;;;1.55;;
80163;SDS011;70071;55.130;61.268;2023-11-22T03:07:10;2.88;;;1.63;;
80163;SDS011;70071;55.130;61.268;2023-11-22T03:09:36;4.93;;;1.73;;
80163;SDS011;70071;55.130;61.268;2023-11-22T03:12:06;4.13;;;1.55;;
80163;SDS011;70071;55.130;61.268;2023-11-22T03:14:34;3.30;;;1.52;;
80163;SDS011;70071;55.130;61.268;2023-11-22T03:17:02;4.47;;;1.67;;
80163;SDS011;70071;55.130;61.268;2023-11-22T03:19:31;5.65;;;2.10;;
80163;SDS011;70071;55.130;61.268;2023-11-22T03:22:01;6.18;;;2.03;;
80163;SDS011;70071;55.130;61.268;2023-11-22T03:24:30;8.48;;;2.38;;
80163;SDS011;70071;55.130;61.268;2023-11-22T03:26:56;5.28;;;1.70;;
80163;SDS011;70071;55.130;61.268;2023-11-22T03:29:25;3.05;;;1.40;;
80163;SDS011;70071;55.130;61.268;2023-11-22T03:31:51;5.15;;;1.83;;
80163;SDS011;70071;55.130;61.268;2023-11-22T03:34:18;3.05;;;1.42;;
80163;SDS011;70071;55.130;61.268;2023-11-22T03:36:45;3.20;;;1.75;;
80163;SDS011;70071;55.130;61.268;2023-11-22T03:39:11;3.47;;;1.70;;
80163;SDS011;70071;55.130;61.268;2023-11-22T03:41:40;3.92;;;1.88;;
80163;SDS011;70071;55.130;61.268;2023-11-22T03:44:07;5.15;;;2.05;;
80163;SDS011;70071;55.130;61.268;2023-11-22T03:46:36;5.78;;;2.08;;
80163;SDS011;70071;55.130;61.268;2023-11-22T03:49:03;6.32;;;1.80;;
80163;SDS011;70071;55.130;61.268;2023-11-22T03:51:32;9.18;;;2.35;;
80163;SDS011;70071;55.130;61.268;2023-11-22T03:53:58;4.50;;;1.60;;
80163;SDS011;70071;55.130;61.268;2023-11-22T03:56:25;5.40;;;1.73;;
80163;SDS011;70071;55.130;61.268;2023-11-22T03:58:51;6.00;;;1.95;;
80163;SDS011;70071;55.130;61.268;2023-11-22T04:01:18;5.20;;;1.80;;
80163;SDS011;70071;55.130;61.268;2023-11-22T04:03:47;6.32;;;2.03;;
80163;SDS011;70071;55.130;61.268;2023-11-22T04:06:17;4.97;;;1.98;;
80163;SDS011;70071;55.130;61.268;2023-11-22T04:08:45;4.38;;;2.00;;
80163;SDS011;70071;55.130;61.268;2023-11-22T04:13:38;7.10;;;2.63;;
80163;SDS011;70071;55.130;61.268;2023-11-22T04:16:04;8.57;;;2.88;;
80163;SDS011;70071;55.130;61.268;2023-11-22T04:18:40;5.35;;;2.42;;
80163;SDS011;70071;55.130;61.268;2023-11-22T04:21:13;6.78;;;3.00;;
80163;SDS011;70071;55.130;61.268;2023-11-22T04:23:42;11.82;;;2.78;;
80163;SDS011;70071;55.130;61.268;2023-11-22T04:26:09;7.10;;;2.53;;
80163;SDS011;70071;55.130;61.268;2023-11-22T04:28:36;4.60;;;2.03;;
80163;SDS011;70071;55.130;61.268;2023-11-22T04:31:02;7.22;;;2.13;;
80163;SDS011;70071;55.130;61.268;2023-11-22T04:33:29;9.75;;;2.75;;
80163;SDS011;70071;55.130;61.268;2023-11-22T04:35:55;4.03;;;1.75;;
80163;SDS011;70071;55.130;61.268;2023-11-22T04:38:21;3.92;;;2.38;;
80163;SDS011;70071;55.130;61.268;2023-11-22T04:40:48;7.28;;;2.33;;
80163;SDS011;70071;55.130;61.268;2023-11-22T04:43:14;17.15;;;4.00;;
80163;SDS011;70071;55.130;61.268;2023-11-22T04:45:40;5.25;;;2.53;;
80163;SDS011;70071;55.130;61.268;2023-11-22T04:48:06;4.47;;;2.22;;
80163;SDS011;70071;55.130;61.268;2023-11-22T04:50:32;8.95;;;2.80;;
80163;SDS011;70071;55.130;61.268;2023-11-22T04:52:59;4.93;;;2.28;;
80163;SDS011;70071;55.130;61.268;2023-11-22T04:55:27;7.20;;;2.47;;
80163;SDS011;70071;55.130;61.268;2023-11-22T04:57:58;4.65;;;1.90;;
80163;SDS011;70071;55.130;61.268;2023-11-22T05:00:24;8.75;;;2.00;;
80163;SDS011;70071;55.130;61.268;2023-11-22T05:02:54;5.25;;;2.00;;
80163;SDS011;70071;55.130;61.268;2023-11-22T05:05:21;5.75;;;2.17;;
80163;SDS011;70071;55.130;61.268;2023-11-22T05:07:48;4.25;;;1.92;;
80163;SDS011;70071;55.130;61.268;2023-11-22T05:10:31;7.25;;;2.30;;
80163;SDS011;70071;55.130;61.268;2023-11-22T05:13:37;9.02;;;2.38;;
80163;SDS011;70071;55.130;61.268;2023-11-22T05:16:04;9.98;;;2.83;;
80163;SDS011;70071;55.130;61.268;2023-11-22T05:18:35;7.35;;;2.30;;
80163;SDS011;70071;55.130;61.268;2023-11-22T05:21:18;4.97;;;2.38;;
80163;SDS011;70071;55.130;61.268;2023-11-22T05:23:44;4.97;;;2.42;;
80163;SDS011;70071;55.130;61.268;2023-11-22T05:26:10;5.93;;;1.88;;
80163;SDS011;70071;55.130;61.268;2023-11-22T05:28:36;5.85;;;2.20;;
80163;SDS011;70071;55.130;61.268;2023-11-22T05:31:02;4.03;;;1.50;;
80163;SDS011;70071;55.130;61.268;2023-11-22T05:33:30;6.40;;;2.38;;
80163;SDS011;70071;55.130;61.268;2023-11-22T05:35:58;7.50;;;2.25;;
80163;SDS011;70071;55.130;61.268;2023-11-22T05:38:24;4.60;;;2.00;;
80163;SDS011;70071;55.130;61.268;2023-11-22T05:40:52;4.10;;;2.17;;
80163;SDS011;70071;55.130;61.268;2023-11-22T05:43:18;4.65;;;1.70;;
80163;SDS011;70071;55.130;61.268;2023-11-22T05:45:51;5.57;;;2.22;;
80163;SDS011;70071;55.130;61.268;2023-11-22T05:48:17;4.70;;;2.40;;
80163;SDS011;70071;55.130;61.268;2023-11-22T05:50:42;7.00;;;2.50;;
80163;SDS011;70071;55.130;61.268;2023-11-22T05:53:10;6.28;;;2.10;;
80163;SDS011;70071;55.130;61.268;2023-11-22T05:55:49;5.57;;;2.05;;
80163;SDS011;70071;55.130;61.268;2023-11-22T05:58:15;7.53;;;2.50;;
80163;SDS011;70071;55.130;61.268;2023-11-22T06:03:08;7.28;;;2.78;;
80163;SDS011;70071;55.130;61.268;2023-11-22T06:05:35;5.90;;;2.72;;
80163;SDS011;70071;55.130;61.268;2023-11-22T06:08:01;14.13;;;3.22;;
80163;SDS011;70071;55.130;61.268;2023-11-22T06:10:27;6.97;;;2.80;;
80163;SDS011;70071;55.130;61.268;2023-11-22T06:15:20;5.15;;;2.00;;
80163;SDS011;70071;55.130;61.268;2023-11-22T06:17:50;7.35;;;2.22;;
80163;SDS011;70071;55.130;61.268;2023-11-22T06:20:18;5.40;;;2.55;;
80163;SDS011;70071;55.130;61.268;2023-11-22T06:22:52;7.72;;;2.30;;
80163;SDS011;70071;55.130;61.268;2023-11-22T06:25:20;7.13;;;2.00;;
80163;SDS011;70071;55.130;61.268;2023-11-22T06:27:47;6.78;;;2.38;;
80163;SDS011;70071;55.130;61.268;2023-11-22T06:30:14;3.60;;;2.25;;
80163;SDS011;70071;55.130;61.268;2023-11-22T06:32:40;5.95;;;2.10;;
80163;SDS011;70071;55.130;61.268;2023-11-22T06:35:09;7.90;;;2.90;;
80163;SDS011;70071;55.130;61.268;2023-11-22T06:37:39;4.70;;;2.20;;
80163;SDS011;70071;55.130;61.268;2023-11-22T06:40:09;3.72;;;2.20;;
80163;SDS011;70071;55.130;61.268;2023-11-22T06:42:38;6.72;;;2.40;;
80163;SDS011;70071;55.130;61.268;2023-11-22T06:45:05;6.55;;;2.50;;
80163;SDS011;70071;55.130;61.268;2023-11-22T06:47:38;5.47;;;2.20;;
80163;SDS011;70071;55.130;61.268;2023-11-22T06:50:06;3.63;;;2.00;;
80163;SDS011;70071;55.130;61.268;2023-11-22T06:52:35;4.65;;;2.28;;
80163;SDS011;70071;55.130;61.268;2023-11-22T06:55:06;4.88;;;2.22;;
80163;SDS011;70071;55.130;61.268;2023-11-22T06:57:36;7.80;;;2.80;;
80163;SDS011;70071;55.130;61.268;2023-11-22T07:00:03;4.93;;;2.30;;
80163;SDS011;70071;55.130;61.268;2023-11-22T07:02:32;3.55;;;1.60;;
80163;SDS011;70071;55.130;61.268;2023-11-22T07:04:58;4.28;;;2.05;;
80163;SDS011;70071;55.130;61.268;2023-11-22T07:07:25;3.13;;;2.00;;
80163;SDS011;70071;55.130;61.268;2023-11-22T07:09:51;6.05;;;1.80;;
80163;SDS011;70071;55.130;61.268;2023-11-22T07:12:17;3.40;;;1.40;;
80163;SDS011;70071;55.130;61.268;2023-11-22T07:14:44;4.25;;;2.00;;
80163;SDS011;70071;55.130;61.268;2023-11-22T07:17:12;5.18;;;2.20;;
80163;SDS011;70071;55.130;61.268;2023-11-22T07:19:38;5.30;;;2.03;;
80163;SDS011;70071;55.130;61.268;2023-11-22T07:22:08;7.22;;;2.15;;
80163;SDS011;70071;55.130;61.268;2023-11-22T07:24:43;5.38;;;2.25;;
80163;SDS011;70071;55.130;61.268;2023-11-22T07:27:13;5.22;;;2.53;;
80163;SDS011;70071;55.130;61.268;2023-11-22T07:29:43;6.50;;;2.60;;
80163;SDS011;70071;55.130;61.268;2023-11-22T07:32:10;4.60;;;1.70;;
80163;SDS011;70071;55.130;61.268;2023-11-22T07:34:37;5.63;;;2.13;;
80163;SDS011;70071;55.130;61.268;2023-11-22T07:37:07;5.90;;;2.10;;
80163;SDS011;70071;55.130;61.268;2023-11-22T07:39:34;4.53;;;1.90;;
80163;SDS011;70071;55.130;61.268;2023-11-22T07:42:04;4.10;;;1.60;;
80163;SDS011;70071;55.130;61.268;2023-11-22T07:44:34;4.03;;;1.70;;
80163;SDS011;70071;55.130;61.268;2023-11-22T07:47:03;3.88;;;2.00;;
80163;SDS011;70071;55.130;61.268;2023-11-22T07:49:38;4.95;;;1.83;;
80163;SDS011;70071;55.130;61.268;2023-11-22T07:52:05;8.60;;;2.83;;
80163;SDS011;70071;55.130;61.268;2023-11-22T07:54:32;3.30;;;1.90;;
80163;SDS011;70071;55.130;61.268;2023-11-22T07:57:01;5.07;;;2.63;;
80163;SDS011;70071;55.130;61.268;2023-11-22T07:59:26;4.68;;;2.17;;
80163;SDS011;70071;55.130;61.268;2023-11-22T08:01:52;4.70;;;1.92;;
80163;SDS011;70071;55.130;61.268;2023-11-22T08:04:19;3.42;;;2.08;;
80163;SDS011;70071;55.130;61.268;2023-11-22T08:06:45;5.72;;;2.03;;
80163;SDS011;70071;55.130;61.268;2023-11-22T08:09:11;4.90;;;1.85;;
80163;SDS011;70071;55.130;61.268;2023-11-22T08:11:38;3.75;;;2.15;;
80163;SDS011;70071;55.130;61.268;2023-11-22T08:14:04;3.47;;;2.00;;
80163;SDS011;70071;55.130;61.268;2023-11-22T08:16:31;5.07;;;2.55;;
80163;SDS011;70071;55.130;61.268;2023-11-22T08:18:58;5.22;;;2.25;;
80163;SDS011;70071;55.130;61.268;2023-11-22T08:21:24;4.55;;;1.98;;
80163;SDS011;70071;55.130;61.268;2023-11-22T08:23:51;4.70;;;2.38;;
80163;SDS011;70071;55.130;61.268;2023-11-22T08:26:19;4.88;;;2.58;;
80163;SDS011;70071;55.130;61.268;2023-11-22T08:28:45;4.72;;;2.00;;
80163;SDS011;70071;55.130;61.268;2023-11-22T08:31:11;5.20;;;1.80;;
80163;SDS011;70071;55.130;61.268;2023-11-22T08:33:37;5.82;;;2.47;;
80163;SDS011;70071;55.130;61.268;2023-11-22T08:38:34;3.70;;;2.45;;
80163;SDS011;70071;55.130;61.268;2023-11-22T08:41:01;3.65;;;1.80;;
80163;SDS011;70071;55.130;61.268;2023-11-22T08:43:31;3.80;;;1.90;;
80163;SDS011;70071;55.130;61.268;2023-11-22T08:45:58;3.40;;;1.67;;
80163;SDS011;70071;55.130;61.268;2023-11-22T08:48:25;6.30;;;2.50;;
80163;SDS011;70071;55.130;61.268;2023-11-22T08:50:53;3.05;;;2.20;;
80163;SDS011;70071;55.130;61.268;2023-11-22T08:53:21;2.72;;;1.63;;
80163;SDS011;70071;55.130;61.268;2023-11-22T08:55:47;4.78;;;2.17;;
80163;SDS011;70071;55.130;61.268;2023-11-22T08:58:14;2.50;;;1.40;;
80163;SDS011;70071;55.130;61.268;2023-11-22T09:00:40;4.13;;;1.70;;
80163;SDS011;70071;55.130;61.268;2023-11-22T09:03:10;5.97;;;1.63;;
80163;SDS011;70071;55.130;61.268;2023-11-22T09:05:43;4.05;;;1.77;;
80163;SDS011;70071;55.130;61.268;2023-11-22T09:08:09;4.53;;;2.30;;
80163;SDS011;70071;55.130;61.268;2023-11-22T09:10:44;2.85;;;1.48;;
80163;SDS011;70071;55.130;61.268;2023-11-22T09:13:10;3.10;;;1.90;;
80163;SDS011;70071;55.130;61.268;2023-11-22T09:15:37;3.88;;;2.33;;
80163;SDS011;70071;55.130;61.268;2023-11-22T09:18:04;7.07;;;2.70;;
80163;SDS011;70071;55.130;61.268;2023-11-22T09:20:32;5.65;;;2.15;;
80163;SDS011;70071;55.130;61.268;2023-11-22T09:22:58;4.85;;;2.28;;
80163;SDS011;70071;55.130;61.268;2023-11-22T09:25:25;4.50;;;2.03;;
80163;SDS011;70071;55.130;61.268;2023-11-22T09:27:56;3.40;;;1.90;;
80163;SDS011;70071;55.130;61.268;2023-11-22T09:30:26;6.32;;;2.53;;
80163;SDS011;70071;55.130;61.268;2023-11-22T09:33:09;5.90;;;2.67;;
80163;SDS011;70071;55.130;61.268;2023-11-22T09:35:43;3.80;;;2.03;;
80163;SDS011;70071;55.130;61.268;2023-11-22T09:38:11;3.55;;;1.80;;
80163;SDS011;70071;55.130;61.268;2023-11-22T09:40:40;3.72;;;1.67;;
80163;SDS011;70071;55.130;61.268;2023-11-22T09:43:11;3.83;;;2.20;;
80163;SDS011;70071;55.130;61.268;2023-11-22T09:45:42;3.90;;;1.92;;
80163;SDS011;70071;55.130;61.268;2023-11-22T09:48:19;2.78;;;1.75;;
80163;SDS011;70071;55.130;61.268;2023-11-22T09:53:34;3.30;;;1.95;;
80163;SDS011;70071;55.130;61.268;2023-11-22T09:56:11;4.35;;;2.42;;
80163;SDS011;70071;55.130;61.268;2023-11-22T09:58:41;4.18;;;1.92;;
80163;SDS011;70071;55.130;61.268;2023-11-22T10:01:13;4.97;;;2.40;;
80163;SDS011;70071;55.130;61.268;2023-11-22T10:03:41;5.32;;;2.25;;
80163;SDS011;70071;55.130;61.268;2023-11-22T10:06:07;4.18;;;2.05;;
80163;SDS011;70071;55.130;61.268;2023-11-22T10:08:33;3.75;;;2.20;;
80163;SDS011;70071;55.130;61.268;2023-11-22T10:11:01;4.95;;;2.13;;
80163;SDS011;70071;55.130;61.268;2023-11-22T10:13:27;4.72;;;1.92;;
80163;SDS011;70071;55.130;61.268;2023-11-22T10:15:53;3.95;;;1.80;;
80163;SDS011;70071;55.130;61.268;2023-11-22T10:18:19;4.63;;;2.35;;
80163;SDS011;70071;55.130;61.268;2023-11-22T10:20:47;4.45;;;2.22;;
80163;SDS011;70071;55.130;61.268;2023-11-22T10:23:18;6.00;;;2.33;;
80163;SDS011;70071;55.130;61.268;2023-11-22T10:25:46;4.65;;;1.95;;
80163;SDS011;70071;55.130;61.268;2023-11-22T10:28:15;5.43;;;2.38;;
80163;SDS011;70071;55.130;61.268;2023-11-22T10:30:45;4.03;;;1.60;;
80163;SDS011;70071;55.130;61.268;2023-11-22T10:35:47;4.97;;;1.92;;
80163;SDS011;70071;55.130;61.268;2023-11-22T10:38:14;4.13;;;2.22;;
80163;SDS011;70071;55.130;61.268;2023-11-22T10:40:40;3.88;;;1.98;;
80163;SDS011;70071;55.130;61.268;2023-11-22T10:43:11;3.35;;;2.03;;
80163;SDS011;70071;55.130;61.268;2023-11-22T10:45:41;6.43;;;2.55;;
80163;SDS011;70071;55.130;61.268;2023-11-22T10:48:15;4.22;;;2.15;;
80163;SDS011;70071;55.130;61.268;2023-11-22T10:50:42;3.75;;;2.05;;
80163;SDS011;70071;55.130;61.268;2023-11-22T10:53:11;3.90;;;2.40;;
80163;SDS011;70071;55.130;61.268;2023-11-22T10:55:41;4.40;;;2.22;;
80163;SDS011;70071;55.130;61.268;2023-11-22T10:58:10;5.55;;;2.83;;
80163;SDS011;70071;55.130;61.268;2023-11-22T11:00:36;7.78;;;2.88;;
80163;SDS011;70071;55.130;61.268;2023-11-22T11:03:14;7.25;;;3.72;;
80163;SDS011;70071;55.130;61.268;2023-11-22T11:05:46;10.90;;;4.05;;
80163;SDS011;70071;55.130;61.268;2023-11-22T11:08:18;8.85;;;3.85;;
80163;SDS011;70071;55.130;61.268;2023-11-22T11:10:46;9.02;;;3.15;;
80163;SDS011;70071;55.130;61.268;2023-11-22T11:13:15;8.15;;;3.50;;
80163;SDS011;70071;55.130;61.268;2023-11-22T11:15:41;9.75;;;3.67;;
80163;SDS011;70071;55.130;61.268;2023-11-22T11:18:14;7.72;;;3.50;;
80163;SDS011;70071;55.130;61.268;2023-11-22T11:20:45;8.80;;;3.83;;
80163;SDS011;70071;55.130;61.268;2023-11-22T11:23:16;7.55;;;3.40;;
80163;SDS011;70071;55.130;61.268;2023-11-22T11:25:49;9.13;;;4.05;;
80163;SDS011;70071;55.130;61.268;2023-11-22T11:28:16;8.75;;;3.72;;
80163;SDS011;70071;55.130;61.268;2023-11-22T11:30:43;8.93;;;3.92;;
80163;SDS011;70071;55.130;61.268;2023-11-22T11:33:14;8.98;;;4.07;;
80163;SDS011;70071;55.130;61.268;2023-11-22T11:35:46;10.68;;;4.75;;
80163;SDS011;70071;55.130;61.268;2023-11-22T11:38:14;8.68;;;4.25;;
80163;SDS011;70071;55.130;61.268;2023-11-22T11:40:42;9.57;;;3.72;;
80163;SDS011;70071;55.130;61.268;2023-11-22T11:43:10;8.32;;;3.80;;
80163;SDS011;70071;55.130;61.268;2023-11-22T11:45:40;9.63;;;4.03;;
80163;SDS011;70071;55.130;61.268;2023-11-22T11:48:15;5.78;;;3.50;;
80163;SDS011;70071;55.130;61.268;2023-11-22T11:50:42;7.70;;;3.35;;
80163;SDS011;70071;55.130;61.268;2023-11-22T11:53:09;10.35;;;3.80;;
80163;SDS011;70071;55.130;61.268;2023-11-22T11:55:38;7.72;;;3.50;;
80163;SDS011;70071;55.130;61.268;2023-11-22T11:58:05;7.15;;;3.30;;
80163;SDS011;70071;55.130;61.268;2023-11-22T12:00:38;4.80;;;2.65;;
80163;SDS011;70071;55.130;61.268;2023-11-22T12:03:07;5.82;;;2.83;;
80163;SDS011;70071;55.130;61.268;2023-11-22T12:05:36;8.20;;;3.20;;
80163;SDS011;70071;55.130;61.268;2023-11-22T12:08:03;8.40;;;4.00;;
80163;SDS011;70071;55.130;61.268;2023-11-22T12:10:29;7.20;;;3.60;;
80163;SDS011;70071;55.130;61.268;2023-11-22T12:12:56;13.35;;;4.53;;
80163;SDS011;70071;55.130;61.268;2023-11-22T12:15:24;11.50;;;5.18;;
80163;SDS011;70071;55.130;61.268;2023-11-22T12:17:51;9.50;;;4.90;;
80163;SDS011;70071;55.130;61.268;2023-11-22T12:20:20;10.50;;;4.65;;
80163;SDS011;70071;55.130;61.268;2023-11-22T12:22:48;13.13;;;5.30;;
80163;SDS011;70071;55.130;61.268;2023-11-22T12:25:15;8.65;;;3.50;;
80163;SDS011;70071;55.130;61.268;2023-11-22T12:27:42;8.15;;;3.67;;
80163;SDS011;70071;55.130;61.268;2023-11-22T12:33:10;7.93;;;3.75;;
80163;SDS011;70071;55.130;61.268;2023-11-22T12:35:42;8.50;;;4.82;;
80163;SDS011;70071;55.130;61.268;2023-11-22T12:38:09;11.65;;;4.68;;
80163;SDS011;70071;55.130;61.268;2023-11-22T12:40:36;10.07;;;4.45;;
80163;SDS011;70071;55.130;61.268;2023-11-22T12:43:02;8.27;;;3.88;;
80163;SDS011;70071;55.130;61.268;2023-11-22T12:45:32;7.38;;;3.63;;
80163;SDS011;70071;55.130;61.268;2023-11-22T12:48:19;7.50;;;3.13;;
80163;SDS011;70071;55.130;61.268;2023-11-22T12:50:50;7.55;;;3.15;;
80163;SDS011;70071;55.130;61.268;2023-11-22T12:53:17;7.72;;;3.72;;
80163;SDS011;70071;55.130;61.268;2023-11-22T12:55:48;7.95;;;3.90;;
80163;SDS011;70071;55.130;61.268;2023-11-22T12:58:16;8.32;;;4.18;;
80163;SDS011;70071;55.130;61.268;2023-11-22T13:00:46;15.50;;;8.40;;
80163;SDS011;70071;55.130;61.268;2023-11-22T13:03:13;11.48;;;5.68;;
80163;SDS011;70071;55.130;61.268;2023-11-22T13:05:40;10.35;;;4.43;;
80163;SDS011;70071;55.130;61.268;2023-11-22T13:08:08;9.48;;;4.35;;
80163;SDS011;70071;55.130;61.268;2023-11-22T13:10:38;7.38;;;3.58;;
80163;SDS011;70071;55.130;61.268;2023-11-22T13:15:34;8.00;;;3.80;;
80163;SDS011;70071;55.130;61.268;2023-11-22T13:18:00;9.50;;;4.35;;
80163;SDS011;70071;55.130;61.268;2023-11-22T13:20:26;7.85;;;4.00;;
80163;SDS011;70071;55.130;61.268;2023-11-22T13:22:53;10.32;;;5.00;;
80163;SDS011;70071;55.130;61.268;2023-11-22T13:25:20;8.57;;;3.90;;
80163;SDS011;70071;55.130;61.268;2023-11-22T13:27:50;7.63;;;4.30;;
80163;SDS011;70071;55.130;61.268;2023-11-22T13:30:18;9.35;;;4.50;;
80163;SDS011;70071;55.130;61.268;2023-11-22T13:32:48;8.88;;;4.15;;
80163;SDS011;70071;55.130;61.268;2023-11-22T13:35:15;8.13;;;3.65;;
80163;SDS011;70071;55.130;61.268;2023-11-22T13:37:43;8.20;;;4.13;;
80163;SDS011;70071;55.130;61.268;2023-11-22T13:40:11;7.15;;;3.28;;
80163;SDS011;70071;55.130;61.268;2023-11-22T13:42:44;6.50;;;3.35;;
80163;SDS011;70071;55.130;61.268;2023-11-22T13:45:11;9.10;;;4.18;;
80163;SDS011;70071;55.130;61.268;2023-11-22T13:47:43;7.38;;;3.80;;
80163;SDS011;70071;55.130;61.268;2023-11-22T13:50:10;8.25;;;4.18;;
80163;SDS011;70071;55.130;61.268;2023-11-22T13:52:39;9.23;;;4.13;;
80163;SDS011;70071;55.130;61.268;2023-11-22T13:55:05;8.15;;;3.55;;
80163;SDS011;70071;55.130;61.268;2023-11-22T13:57:36;9.35;;;4.63;;
80163;SDS011;70071;55.130;61.268;2023-11-22T14:00:03;7.47;;;3.97;;
80163;SDS011;70071;55.130;61.268;2023-11-22T14:02:38;8.73;;;4.35;;
80163;SDS011;70071;55.130;61.268;2023-11-22T14:05:08;7.20;;;3.42;;
80163;SDS011;70071;55.130;61.268;2023-11-22T14:07:34;6.22;;;3.42;;
80163;SDS011;70071;55.130;61.268;2023-11-22T14:10:01;6.72;;;3.22;;
80163;SDS011;70071;55.130;61.268;2023-11-22T14:12:29;5.63;;;3.45;;
80163;SDS011;70071;55.130;61.268;2023-11-22T14:14:57;9.38;;;4.15;;
80163;SDS011;70071;55.130;61.268;2023-11-22T14:19:49;8.65;;;4.00;;
80163;SDS011;70071;55.130;61.268;2023-11-22T14:22:16;9.45;;;4.32;;
80163;SDS011;70071;55.130;61.268;2023-11-22T14:24:43;7.28;;;3.97;;
80163;SDS011;70071;55.130;61.268;2023-11-22T14:27:11;8.43;;;3.80;;
80163;SDS011;70071;55.130;61.268;2023-11-22T14:29:37;8.00;;;4.30;;
80163;SDS011;70071;55.130;61.268;2023-11-22T14:32:04;10.38;;;4.07;;
80163;SDS011;70071;55.130;61.268;2023-11-22T14:34:29;6.30;;;3.38;;
80163;SDS011;70071;55.130;61.268;2023-11-22T14:36:56;8.32;;;3.90;;
80163;SDS011;70071;55.130;61.268;2023-11-22T14:39:22;6.38;;;3.80;;
80163;SDS011;70071;55.130;61.268;2023-11-22T14:41:49;7.07;;;4.47;;
80163;SDS011;70071;55.130;61.268;2023-11-22T14:44:16;7.40;;;3.97;;
80163;SDS011;70071;55.130;61.268;2023-11-22T14:46:43;7.47;;;3.70;;
80163;SDS011;70071;55.130;61.268;2023-11-22T14:49:09;7.72;;;3.30;;
80163;SDS011;70071;55.130;61.268;2023-11-22T14:51:35;7.28;;;3.55;;
80163;SDS011;70071;55.130;61.268;2023-11-22T14:54:01;7.47;;;4.38;;
80163;SDS011;70071;55.130;61.268;2023-11-22T14:56:27;11.10;;;5.13;;
80163;SDS011;70071;55.130;61.268;2023-11-22T14:58:53;10.05;;;4.25;;
80163;SDS011;70071;55.130;61.268;2023-11-22T15:01:21;11.52;;;4.68;;
80163;SDS011;70071;55.130;61.268;2023-11-22T15:06:17;8.75;;;4.30;;
80163;SDS011;70071;55.130;61.268;2023-11-22T15:08:42;8.77;;;3.88;;
80163;SDS011;70071;55.130;61.268;2023-11-22T15:11:08;8.82;;;5.03;;
80163;SDS011;70071;55.130;61.268;2023-11-22T15:13:35;10.55;;;4.65;;
80163;SDS011;70071;55.130;61.268;2023-11-22T15:16:03;11.65;;;5.32;;
80163;SDS011;70071;55.130;61.268;2023-11-22T15:18:30;11.38;;;5.90;;